sensor_id;sensor_type;location;lat;lon;timestamp;pressure;altitude;pressure_sealevel;temperature;humidity
7832;BME280;3961;42.058;25.586;2023-02-19T21:29:53;63612.75;;;12.37;95.71
7832;BME280;3961;42.058;25.586;2023-02-19T21:32:19;63613.91;;;12.38;95.87
7832;BME280;3961;42.058;25.586;2023-02-19T21:34:44;63628.97;;;12.52;94.56
7832;BME280;3961;42.058;25.586;2023-02-19T21:37:10;63635.59;;;12.60;93.83
7832;BME280;3961;42.058;25.586;2023-02-19T21:39:35;63650.72;;;12.68;92.81
7832;BME280;3961;42.058;25.586;2023-02-19T21:42:01;63660.81;;;12.79;92.77
7832;BME280;3961;42.058;25.586;2023-02-19T21:44:27;63651.78;;;12.74;92.47
7832;BME280;3961;42.058;25.586;2023-02-19T21:46:53;63660.81;;;12.79;92.01
7832;BME280;3961;42.058;25.586;2023-02-19T21:49:18;63661.97;;;12.81;92.17
7832;BME280;3961;42.058;25.586;2023-02-19T21:51:44;63671.59;;;12.87;91.51
7832;BME280;3961;42.058;25.586;2023-02-19T21:54:15;63672.06;;;12.92;91.02
7832;BME280;3961;42.058;25.586;2023-02-19T21:56:41;63658.16;;;12.79;91.30
7832;BME280;3961;42.058;25.586;2023-02-19T21:59:06;63665.78;;;12.82;91.13
7832;BME280;3961;42.058;25.586;2023-02-19T22:01:34;63647.38;;;12.72;91.44
7832;BME280;3961;42.058;25.586;2023-02-19T22:04:03;63654.44;;;12.74;91.09
7832;BME280;3961;42.058;25.586;2023-02-19T22:06:29;63632.69;;;12.57;92.47
7832;BME280;3961;42.058;25.586;2023-02-19T22:08:56;63632.09;;;12.57;92.52
7832;BME280;3961;42.058;25.586;2023-02-19T22:11:22;63626.09;;;12.49;93.26
7832;BME280;3961;42.058;25.586;2023-02-19T22:13:47;63628.41;;;12.51;92.69
7832;BME280;3961;42.058;25.586;2023-02-19T22:16:13;63597.03;;;12.28;92.46
7832;BME280;3961;42.058;25.586;2023-02-19T22:18:49;63569.97;;;12.00;94.15
7832;BME280;3961;42.058;25.586;2023-02-19T22:21:15;63560.72;;;11.92;94.78
7832;BME280;3961;42.058;25.586;2023-02-19T22:23:48;63555.84;;;11.85;94.48
7832;BME280;3961;42.058;25.586;2023-02-19T22:26:21;63558.38;;;11.90;93.37
7832;BME280;3961;42.058;25.586;2023-02-19T22:28:47;63519.28;;;11.58;93.78
7832;BME280;3961;42.058;25.586;2023-02-19T22:31:17;63534.88;;;11.71;93.22
7832;BME280;3961;42.058;25.586;2023-02-19T22:33:43;63546.59;;;11.77;92.61
7832;BME280;3961;42.058;25.586;2023-02-19T22:36:14;63542.75;;;11.76;91.12
7832;BME280;3961;42.058;25.586;2023-02-19T22:38:39;63529.00;;;11.59;93.09
7832;BME280;3961;42.058;25.586;2023-02-19T22:41:05;63524.50;;;11.62;93.25
7832;BME280;3961;42.058;25.586;2023-02-19T22:43:30;63528.66;;;11.61;92.91
7832;BME280;3961;42.058;25.586;2023-02-19T22:45:56;63493.38;;;11.30;93.77
7832;BME280;3961;42.058;25.586;2023-02-19T22:48:21;63504.59;;;11.42;94.31
7832;BME280;3961;42.058;25.586;2023-02-19T22:50:47;63464.47;;;11.05;98.18
7832;BME280;3961;42.058;25.586;2023-02-19T22:53:12;63469.09;;;11.09;99.62
7832;BME280;3961;42.058;25.586;2023-02-19T22:55:38;63480.66;;;11.19;99.24
7832;BME280;3961;42.058;25.586;2023-02-19T22:58:03;63463.34;;;11.04;98.69
7832;BME280;3961;42.058;25.586;2023-02-19T23:00:29;63450.50;;;10.97;100.00
7832;BME280;3961;42.058;25.586;2023-02-19T23:02:54;63431.09;;;10.83;100.00
7832;BME280;3961;42.058;25.586;2023-02-19T23:05:20;63441.59;;;10.87;100.00
7832;BME280;3961;42.058;25.586;2023-02-19T23:07:47;63456.88;;;11.03;100.00
7832;BME280;3961;42.058;25.586;2023-02-19T23:10:13;63482.06;;;11.23;99.63
7832;BME280;3961;42.058;25.586;2023-02-19T23:12:39;63495.13;;;11.32;99.15
7832;BME280;3961;42.058;25.586;2023-02-19T23:15:06;63483.56;;;11.22;99.19
7832;BME280;3961;42.058;25.586;2023-02-19T23:17:32;63501.13;;;11.39;98.00
7832;BME280;3961;42.058;25.586;2023-02-19T23:19:57;63495.47;;;11.30;98.22
7832;BME280;3961;42.058;25.586;2023-02-19T23:22:23;63497.09;;;11.36;97.02
7832;BME280;3961;42.058;25.586;2023-02-19T23:24:48;63470.16;;;11.15;97.07
7832;BME280;3961;42.058;25.586;2023-02-19T23:27:14;63490.97;;;11.33;98.00
7832;BME280;3961;42.058;25.586;2023-02-19T23:29:39;63494.19;;;11.33;97.59
7832;BME280;3961;42.058;25.586;2023-02-19T23:32:05;63500.78;;;11.41;96.83
7832;BME280;3961;42.058;25.586;2023-02-19T23:34:30;63511.19;;;11.51;96.15
7832;BME280;3961;42.058;25.586;2023-02-19T23:36:56;63501.13;;;11.39;96.17
7832;BME280;3961;42.058;25.586;2023-02-19T23:39:24;63507.25;;;11.42;95.68
7832;BME280;3961;42.058;25.586;2023-02-19T23:41:55;63492.69;;;11.34;94.94
7832;BME280;3961;42.058;25.586;2023-02-19T23:44:23;63501.47;;;11.37;94.01
7832;BME280;3961;42.058;25.586;2023-02-19T23:46:50;63490.38;;;11.32;94.17
7832;BME280;3961;42.058;25.586;2023-02-19T23:49:16;63491.88;;;11.31;94.23
7832;BME280;3961;42.058;25.586;2023-02-19T23:51:42;63486.09;;;11.26;93.29
7832;BME280;3961;42.058;25.586;2023-02-19T23:54:08;63485.28;;;11.23;93.15
7832;BME280;3961;42.058;25.586;2023-02-19T23:56:34;63482.88;;;11.26;93.09
7832;BME280;3961;42.058;25.586;2023-02-19T23:58:59;63432.13;;;10.76;94.63
